sensor_id;sensor_type;location;lat;lon;timestamp;pressure;altitude;pressure_sealevel;temperature;humidity
24230;BME280;12362;50.004;8.006;2022-10-31T00:01:44;101108.19;;;9.39;100.00
24230;BME280;12362;50.004;8.006;2022-10-31T00:04:10;101103.59;;;9.47;100.00
24230;BME280;12362;50.004;8.006;2022-10-31T00:06:35;101106.88;;;9.52;100.00
24230;BME280;12362;50.004;8.006;2022-10-31T00:09:03;101111.03;;;9.58;100.00
24230;BME280;12362;50.004;8.006;2022-10-31T00:11:29;101104.28;;;9.52;100.00
24230;BME280;12362;50.004;8.006;2022-10-31T00:13:56;101110.22;;;9.56;100.00
24230;BME280;12362;50.004;8.006;2022-10-31T00:16:24;101116.03;;;9.62;100.00
24230;BME280;12362;50.004;8.006;2022-10-31T00:19:01;101117.34;;;9.75;100.00
24230;BME280;12362;50.004;8.006;2022-10-31T00:21:27;101118.63;;;9.62;100.00
24230;BME280;12362;50.004;8.006;2022-10-31T00:23:53;101114.38;;;9.60;100.00
24230;BME280;12362;50.004;8.006;2022-10-31T00:26:18;101115.81;;;9.68;100.00
24230;BME280;12362;50.004;8.006;2022-10-31T00:28:44;101118.38;;;9.70;100.00
24230;BME280;12362;50.004;8.006;2022-10-31T00:31:11;101114.38;;;9.60;100.00
24230;BME280;12362;50.004;8.006;2022-10-31T00:33:37;101110.13;;;9.59;100.00
24230;BME280;12362;50.004;8.006;2022-10-31T00:36:04;101110.00;;;9.62;100.00
24230;BME280;12362;50.004;8.006;2022-10-31T00:38:30;101112.41;;;9.68;100.00
24230;BME280;12362;50.004;8.006;2022-10-31T00:40:56;101109.59;;;9.74;100.00
24230;BME280;12362;50.004;8.006;2022-10-31T00:43:21;101113.47;;;9.61;100.00
24230;BME280;12362;50.004;8.006;2022-10-31T00:45:47;101127.47;;;9.57;100.00
24230;BME280;12362;50.004;8.006;2022-10-31T00:48:13;101120.53;;;9.57;100.00
24230;BME280;12362;50.004;8.006;2022-10-31T00:50:38;101119.47;;;9.63;100.00
24230;BME280;12362;50.004;8.006;2022-10-31T00:53:04;101110.72;;;9.65;100.00
24230;BME280;12362;50.004;8.006;2022-10-31T00:55:30;101116.69;;;9.69;100.00
24230;BME280;12362;50.004;8.006;2022-10-31T00:57:55;101113.94;;;9.73;100.00
24230;BME280;12362;50.004;8.006;2022-10-31T01:00:20;101116.31;;;9.79;100.00
24230;BME280;12362;50.004;8.006;2022-10-31T01:02:46;101114.56;;;9.80;100.00
24230;BME280;12362;50.004;8.006;2022-10-31T01:05:12;101109.44;;;9.78;100.00
24230;BME280;12362;50.004;8.006;2022-10-31T01:07:39;101108.66;;;9.76;100.00
24230;BME280;12362;50.004;8.006;2022-10-31T01:10:06;101111.38;;;9.72;100.00
24230;BME280;12362;50.004;8.006;2022-10-31T01:12:43;101102.88;;;9.68;100.00
24230;BME280;12362;50.004;8.006;2022-10-31T01:15:10;101106.16;;;9.73;100.00
24230;BME280;12362;50.004;8.006;2022-10-31T01:17:36;101107.72;;;9.77;100.00
24230;BME280;12362;50.004;8.006;2022-10-31T01:20:03;101107.63;;;9.80;100.00
24230;BME280;12362;50.004;8.006;2022-10-31T01:22:29;101108.28;;;9.87;100.00
24230;BME280;12362;50.004;8.006;2022-10-31T01:24:54;101109.91;;;9.89;100.00
24230;BME280;12362;50.004;8.006;2022-10-31T01:27:19;101111.34;;;9.73;100.00
24230;BME280;12362;50.004;8.006;2022-10-31T01:29:45;101113.72;;;9.79;100.00
24230;BME280;12362;50.004;8.006;2022-10-31T01:32:10;101116.22;;;9.82;100.00
24230;BME280;12362;50.004;8.006;2022-10-31T01:34:36;101111.28;;;9.75;100.00
24230;BME280;12362;50.004;8.006;2022-10-31T01:37:01;101109.81;;;9.68;100.00
24230;BME280;12362;50.004;8.006;2022-10-31T01:39:27;101108.28;;;9.62;100.00
24230;BME280;12362;50.004;8.006;2022-10-31T01:41:53;101110.78;;;9.64;100.00
24230;BME280;12362;50.004;8.006;2022-10-31T01:47:19;101112.41;;;9.68;100.00
24230;BME280;12362;50.004;8.006;2022-10-31T01:49:54;101110.53;;;9.71;100.00
24230;BME280;12362;50.004;8.006;2022-10-31T01:55:13;101104.09;;;9.83;100.00
24230;BME280;12362;50.004;8.006;2022-10-31T01:57:43;101104.19;;;9.80;100.00
24230;BME280;12362;50.004;8.006;2022-10-31T02:00:11;101101.44;;;9.84;100.00
24230;BME280;12362;50.004;8.006;2022-10-31T02:02:37;101110.13;;;9.83;100.00
24230;BME280;12362;50.004;8.006;2022-10-31T02:05:06;101115.63;;;9.74;100.00
24230;BME280;12362;50.004;8.006;2022-10-31T02:07:48;101112.06;;;9.52;100.00
24230;BME280;12362;50.004;8.006;2022-10-31T02:10:16;101113.94;;;9.47;100.00
24230;BME280;12362;50.004;8.006;2022-10-31T02:12:42;101106.88;;;9.52;100.00
24230;BME280;12362;50.004;8.006;2022-10-31T02:15:09;101106.66;;;9.58;100.00
24230;BME280;12362;50.004;8.006;2022-10-31T02:17:35;101108.19;;;9.64;100.00
24230;BME280;12362;50.004;8.006;2022-10-31T02:20:19;101104.66;;;9.66;100.00
24230;BME280;12362;50.004;8.006;2022-10-31T02:31:20;101094.75;;;9.53;100.00
24230;BME280;12362;50.004;8.006;2022-10-31T02:33:52;101091.97;;;9.59;100.00
24230;BME280;12362;50.004;8.006;2022-10-31T02:42:03;101076.47;;;9.82;100.00
24230;BME280;12362;50.004;8.006;2022-10-31T02:44:45;101081.78;;;9.77;100.00
24230;BME280;12362;50.004;8.006;2022-10-31T02:47:17;101087.59;;;9.85;100.00
24230;BME280;12362;50.004;8.006;2022-10-31T02:49:59;101081.28;;;9.68;100.00
24230;BME280;12362;50.004;8.006;2022-10-31T02:52:27;101082.13;;;9.68;100.00
24230;BME280;12362;50.004;8.006;2022-10-31T02:54:53;101090.69;;;9.70;100.00
24230;BME280;12362;50.004;8.006;2022-10-31T02:57:31;101085.34;;;9.75;100.00
24230;BME280;12362;50.004;8.006;2022-10-31T03:00:02;101080.59;;;9.63;100.00
24230;BME280;12362;50.004;8.006;2022-10-31T03:05:49;101079.78;;;9.61;100.00
24230;BME280;12362;50.004;8.006;2022-10-31T03:08:35;101078.16;;;9.58;100.00
24230;BME280;12362;50.004;8.006;2022-10-31T03:11:08;101076.28;;;9.62;100.00
24230;BME280;12362;50.004;8.006;2022-10-31T03:14:17;101073.53;;;9.66;100.00
24230;BME280;12362;50.004;8.006;2022-10-31T03:16:48;101077.81;;;9.67;100.00
24230;BME280;12362;50.004;8.006;2022-10-31T03:19:23;101074.41;;;9.67;100.00
24230;BME280;12362;50.004;8.006;2022-10-31T03:22:01;101079.94;;;9.56;100.00
24230;BME280;12362;50.004;8.006;2022-10-31T03:24:35;101078.00;;;9.37;100.00
24230;BME280;12362;50.004;8.006;2022-10-31T03:27:05;101077.19;;;9.36;100.00
24230;BME280;12362;50.004;8.006;2022-10-31T03:29:35;101085.91;;;9.34;100.00
24230;BME280;12362;50.004;8.006;2022-10-31T03:32:06;101076.31;;;9.36;100.00
24230;BME280;12362;50.004;8.006;2022-10-31T03:34:35;101077.03;;;9.41;100.00
24230;BME280;12362;50.004;8.006;2022-10-31T03:37:05;101078.91;;;9.36;100.00
24230;BME280;12362;50.004;8.006;2022-10-31T03:39:32;101084.16;;;9.34;100.00
24230;BME280;12362;50.004;8.006;2022-10-31T03:42:06;101081.91;;;9.24;100.00
24230;BME280;12362;50.004;8.006;2022-10-31T03:44:33;101081.16;;;9.20;100.00
24230;BME280;12362;50.004;8.006;2022-10-31T03:47:01;101080.56;;;9.12;100.00
24230;BME280;12362;50.004;8.006;2022-10-31T03:49:28;101080.06;;;9.02;100.00
24230;BME280;12362;50.004;8.006;2022-10-31T03:54:46;101076.59;;;9.01;100.00
24230;BME280;12362;50.004;8.006;2022-10-31T03:57:41;101080.47;;;9.15;100.00
24230;BME280;12362;50.004;8.006;2022-10-31T04:00:11;101081.06;;;9.23;100.00
24230;BME280;12362;50.004;8.006;2022-10-31T04:02:41;101089.72;;;9.22;100.00
24230;BME280;12362;50.004;8.006;2022-10-31T04:05:09;101085.53;;;9.18;100.00
24230;BME280;12362;50.004;8.006;2022-10-31T04:07:38;101083.94;;;9.14;100.00
24230;BME280;12362;50.004;8.006;2022-10-31T04:10:09;101090.84;;;9.15;100.00
24230;BME280;12362;50.004;8.006;2022-10-31T04:12:56;101092.91;;;9.04;100.00
24230;BME280;12362;50.004;8.006;2022-10-31T04:15:24;101100.56;;;8.82;100.00
24230;BME280;12362;50.004;8.006;2022-10-31T04:17:53;101096.50;;;8.73;100.00
24230;BME280;12362;50.004;8.006;2022-10-31T04:20:32;101109.06;;;8.85;100.00
24230;BME280;12362;50.004;8.006;2022-10-31T04:22:59;101096.94;;;8.87;100.00
24230;BME280;12362;50.004;8.006;2022-10-31T04:25:25;101102.94;;;8.88;100.00
24230;BME280;12362;50.004;8.006;2022-10-31T04:27:50;101097.97;;;8.82;100.00
24230;BME280;12362;50.004;8.006;2022-10-31T04:30:16;101100.94;;;8.68;100.00
24230;BME280;12362;50.004;8.006;2022-10-31T04:32:41;101101.31;;;8.56;100.00
24230;BME280;12362;50.004;8.006;2022-10-31T04:35:07;101103.66;;;8.64;100.00
24230;BME280;12362;50.004;8.006;2022-10-31T04:37:32;101098.28;;;8.71;100.00
24230;BME280;12362;50.004;8.006;2022-10-31T04:39:57;101094.56;;;8.80;100.00
24230;BME280;12362;50.004;8.006;2022-10-31T04:42:23;101086.41;;;8.92;100.00
24230;BME280;12362;50.004;8.006;2022-10-31T04:44:48;101080.38;;;8.91;100.00
24230;BME280;12362;50.004;8.006;2022-10-31T04:47:14;101075.06;;;8.96;100.00
24230;BME280;12362;50.004;8.006;2022-10-31T04:49:39;101077.69;;;8.94;100.00
24230;BME280;12362;50.004;8.006;2022-10-31T04:52:04;101077.75;;;8.93;100.00
24230;BME280;12362;50.004;8.006;2022-10-31T04:54:30;101076.25;;;8.86;100.00
24230;BME280;12362;50.004;8.006;2022-10-31T04:56:55;101079.72;;;8.85;100.00
24230;BME280;12362;50.004;8.006;2022-10-31T04:59:21;101071.28;;;8.78;100.00
24230;BME280;12362;50.004;8.006;2022-10-31T05:01:46;101073.28;;;8.70;100.00
24230;BME280;12362;50.004;8.006;2022-10-31T05:04:12;101073.28;;;8.70;100.00
24230;BME280;12362;50.004;8.006;2022-10-31T05:06:37;101068.91;;;8.72;100.00
24230;BME280;12362;50.004;8.006;2022-10-31T05:09:02;101072.06;;;8.82;100.00
24230;BME280;12362;50.004;8.006;2022-10-31T05:11:28;101073.56;;;8.89;100.00
24230;BME280;12362;50.004;8.006;2022-10-31T05:13:53;101077.25;;;8.82;100.00
24230;BME280;12362;50.004;8.006;2022-10-31T05:16:19;101077.34;;;8.79;100.00
24230;BME280;12362;50.004;8.006;2022-10-31T05:18:44;101079.44;;;8.66;100.00
24230;BME280;12362;50.004;8.006;2022-10-31T05:21:10;101072.00;;;8.56;100.00
24230;BME280;12362;50.004;8.006;2022-10-31T05:23:35;101082.25;;;8.59;100.00
24230;BME280;12362;50.004;8.006;2022-10-31T05:26:00;101087.16;;;8.68;100.00
24230;BME280;12362;50.004;8.006;2022-10-31T05:28:26;101079.50;;;8.65;100.00
24230;BME280;12362;50.004;8.006;2022-10-31T05:30:51;101083.28;;;8.53;100.00
24230;BME280;12362;50.004;8.006;2022-10-31T05:33:17;101077.13;;;8.57;100.00
24230;BME280;12362;50.004;8.006;2022-10-31T05:35:43;101069.75;;;8.73;100.00
24230;BME280;12362;50.004;8.006;2022-10-31T05:38:08;101084.28;;;8.77;100.00
24230;BME280;12362;50.004;8.006;2022-10-31T05:40:34;101085.78;;;8.84;100.00
24230;BME280;12362;50.004;8.006;2022-10-31T05:42:59;101084.81;;;8.88;100.00
24230;BME280;12362;50.004;8.006;2022-10-31T05:45:25;101084.88;;;8.86;100.00
24230;BME280;12362;50.004;8.006;2022-10-31T05:47:56;101090.56;;;8.70;100.00
24230;BME280;12362;50.004;8.006;2022-10-31T05:50:22;101090.88;;;8.59;100.00
24230;BME280;12362;50.004;8.006;2022-10-31T05:52:57;101084.81;;;8.59;100.00
24230;BME280;12362;50.004;8.006;2022-10-31T05:55:23;101079.44;;;8.66;100.00
24230;BME280;12362;50.004;8.006;2022-10-31T05:57:50;101080.09;;;8.73;100.00
24230;BME280;12362;50.004;8.006;2022-10-31T06:00:17;101081.13;;;8.67;100.00
24230;BME280;12362;50.004;8.006;2022-10-31T06:02:43;101078.81;;;8.58;100.00
24230;BME280;12362;50.004;8.006;2022-10-31T06:05:08;101076.66;;;8.45;100.00
24230;BME280;12362;50.004;8.006;2022-10-31T06:07:34;101083.53;;;8.46;100.00
24230;BME280;12362;50.004;8.006;2022-10-31T06:10:01;101082.38;;;8.54;100.00
24230;BME280;12362;50.004;8.006;2022-10-31T06:12:27;101083.03;;;8.62;100.00
24230;BME280;12362;50.004;8.006;2022-10-31T06:14:52;101081.25;;;8.64;100.00
24230;BME280;12362;50.004;8.006;2022-10-31T06:17:17;101084.81;;;8.59;100.00
24230;BME280;12362;50.004;8.006;2022-10-31T06:19:43;101088.91;;;8.67;100.00
24230;BME280;12362;50.004;8.006;2022-10-31T06:22:08;101086.41;;;8.64;100.00
24230;BME280;12362;50.004;8.006;2022-10-31T06:24:36;101085.69;;;8.59;100.00
24230;BME280;12362;50.004;8.006;2022-10-31T06:27:02;101083.94;;;8.60;100.00
24230;BME280;12362;50.004;8.006;2022-10-31T06:29:27;101087.84;;;8.73;100.00
24230;BME280;12362;50.004;8.006;2022-10-31T06:31:53;101082.28;;;8.86;100.00
24230;BME280;12362;50.004;8.006;2022-10-31T06:34:18;101080.22;;;8.96;100.00
24230;BME280;12362;50.004;8.006;2022-10-31T06:36:46;101081.09;;;8.96;100.00
24230;BME280;12362;50.004;8.006;2022-10-31T06:39:12;101075.91;;;8.96;100.00
24230;BME280;12362;50.004;8.006;2022-10-31T06:41:37;101077.50;;;9.00;100.00
24230;BME280;12362;50.004;8.006;2022-10-31T06:44:05;101080.50;;;9.14;100.00
24230;BME280;12362;50.004;8.006;2022-10-31T06:46:31;101085.25;;;9.27;100.00
24230;BME280;12362;50.004;8.006;2022-10-31T06:48:56;101086.69;;;9.36;100.00
24230;BME280;12362;50.004;8.006;2022-10-31T06:51:21;101079.53;;;9.44;100.00
24230;BME280;12362;50.004;8.006;2022-10-31T06:53:47;101083.41;;;9.57;100.00
24230;BME280;12362;50.004;8.006;2022-10-31T06:56:12;101076.09;;;9.68;100.00
24230;BME280;12362;50.004;8.006;2022-10-31T06:58:37;101076.66;;;9.76;100.00
24230;BME280;12362;50.004;8.006;2022-10-31T07:01:03;101075.41;;;9.87;100.00
24230;BME280;12362;50.004;8.006;2022-10-31T07:03:28;101072.75;;;9.89;100.00
24230;BME280;12362;50.004;8.006;2022-10-31T07:05:56;101064.63;;;9.99;100.00
24230;BME280;12362;50.004;8.006;2022-10-31T07:08:23;101064.97;;;10.13;100.00
24230;BME280;12362;50.004;8.006;2022-10-31T07:10:53;101069.78;;;10.23;100.00
24230;BME280;12362;50.004;8.006;2022-10-31T07:13:19;101069.50;;;10.31;100.00
24230;BME280;12362;50.004;8.006;2022-10-31T07:15:50;101079.50;;;10.41;100.00
24230;BME280;12362;50.004;8.006;2022-10-31T07:18:16;101078.25;;;10.51;100.00
24230;BME280;12362;50.004;8.006;2022-10-31T07:20:42;101075.28;;;10.60;100.00
24230;BME280;12362;50.004;8.006;2022-10-31T07:23:09;101068.56;;;10.78;100.00
24230;BME280;12362;50.004;8.006;2022-10-31T07:25:36;101079.25;;;10.91;100.00
24230;BME280;12362;50.004;8.006;2022-10-31T07:28:02;101077.00;;;11.04;100.00
24230;BME280;12362;50.004;8.006;2022-10-31T07:30:28;101079.97;;;11.16;100.00
24230;BME280;12362;50.004;8.006;2022-10-31T07:32:54;101074.22;;;11.30;100.00
24230;BME280;12362;50.004;8.006;2022-10-31T07:35:25;101071.03;;;11.43;100.00
24230;BME280;12362;50.004;8.006;2022-10-31T07:37:51;101082.66;;;11.56;100.00
24230;BME280;12362;50.004;8.006;2022-10-31T07:40:17;101078.44;;;11.74;100.00
24230;BME280;12362;50.004;8.006;2022-10-31T07:42:47;101085.66;;;11.87;100.00
24230;BME280;12362;50.004;8.006;2022-10-31T07:45:34;101074.06;;;11.94;100.00
24230;BME280;12362;50.004;8.006;2022-10-31T07:48:02;101085.19;;;12.17;100.00
24230;BME280;12362;50.004;8.006;2022-10-31T07:50:30;101078.53;;;12.30;100.00
24230;BME280;12362;50.004;8.006;2022-10-31T07:53:09;101077.75;;;12.47;100.00
24230;BME280;12362;50.004;8.006;2022-10-31T07:55:36;101081.13;;;12.49;100.00
24230;BME280;12362;50.004;8.006;2022-10-31T07:58:07;101077.31;;;12.56;100.00
24230;BME280;12362;50.004;8.006;2022-10-31T08:00:36;101078.81;;;12.61;100.00
24230;BME280;12362;50.004;8.006;2022-10-31T08:03:03;101073.94;;;12.72;100.00
24230;BME280;12362;50.004;8.006;2022-10-31T08:05:30;101074.97;;;12.86;100.00
24230;BME280;12362;50.004;8.006;2022-10-31T08:07:56;101083.72;;;13.04;100.00
24230;BME280;12362;50.004;8.006;2022-10-31T08:10:27;101080.75;;;13.11;100.00
24230;BME280;12362;50.004;8.006;2022-10-31T08:13:10;101079.81;;;13.12;100.00
24230;BME280;12362;50.004;8.006;2022-10-31T08:15:48;101077.78;;;13.19;100.00
24230;BME280;12362;50.004;8.006;2022-10-31T08:18:16;101070.75;;;13.38;100.00
24230;BME280;12362;50.004;8.006;2022-10-31T08:20:42;101068.66;;;13.44;100.00
24230;BME280;12362;50.004;8.006;2022-10-31T08:23:09;101067.06;;;13.59;100.00
24230;BME280;12362;50.004;8.006;2022-10-31T08:25:35;101075.28;;;13.51;100.00
24230;BME280;12362;50.004;8.006;2022-10-31T08:28:00;101070.50;;;13.59;100.00
24230;BME280;12362;50.004;8.006;2022-10-31T08:30:28;101072.28;;;13.59;100.00
24230;BME280;12362;50.004;8.006;2022-10-31T08:33:14;101064.13;;;13.64;100.00
24230;BME280;12362;50.004;8.006;2022-10-31T08:35:40;101057.31;;;13.79;100.00
24230;BME280;12362;50.004;8.006;2022-10-31T08:38:06;101052.38;;;13.90;100.00
24230;BME280;12362;50.004;8.006;2022-10-31T08:40:33;101053.06;;;13.93;100.00
24230;BME280;12362;50.004;8.006;2022-10-31T08:43:00;101051.50;;;14.06;100.00
24230;BME280;12362;50.004;8.006;2022-10-31T08:45:27;101056.88;;;14.20;100.00
24230;BME280;12362;50.004;8.006;2022-10-31T08:47:57;101053.50;;;14.18;100.00
24230;BME280;12362;50.004;8.006;2022-10-31T08:50:23;101045.31;;;14.24;100.00
24230;BME280;12362;50.004;8.006;2022-10-31T08:52:48;101044.34;;;14.27;100.00
24230;BME280;12362;50.004;8.006;2022-10-31T08:55:14;101037.09;;;14.32;100.00
24230;BME280;12362;50.004;8.006;2022-10-31T08:57:39;101032.63;;;14.34;100.00
24230;BME280;12362;50.004;8.006;2022-10-31T09:00:05;101031.44;;;14.54;100.00
24230;BME280;12362;50.004;8.006;2022-10-31T09:02:31;101030.22;;;14.61;100.00
24230;BME280;12362;50.004;8.006;2022-10-31T09:04:56;101029.34;;;14.61;100.00
24230;BME280;12362;50.004;8.006;2022-10-31T09:07:22;101028.44;;;14.62;100.00
24230;BME280;12362;50.004;8.006;2022-10-31T09:09:47;101018.72;;;14.79;100.00
24230;BME280;12362;50.004;8.006;2022-10-31T09:12:12;101012.28;;;15.00;100.00
24230;BME280;12362;50.004;8.006;2022-10-31T09:14:38;101022.50;;;14.89;100.00
24230;BME280;12362;50.004;8.006;2022-10-31T09:17:03;101024.38;;;14.72;100.00
24230;BME280;12362;50.004;8.006;2022-10-31T09:19:29;101019.13;;;14.87;100.00
24230;BME280;12362;50.004;8.006;2022-10-31T09:21:54;101017.94;;;14.93;100.00
24230;BME280;12362;50.004;8.006;2022-10-31T09:24:20;101012.38;;;14.99;100.00
24230;BME280;12362;50.004;8.006;2022-10-31T09:26:45;101011.06;;;15.06;100.00
24230;BME280;12362;50.004;8.006;2022-10-31T09:29:10;101011.84;;;15.08;100.00
24230;BME280;12362;50.004;8.006;2022-10-31T09:31:36;101006.53;;;15.09;100.00
24230;BME280;12362;50.004;8.006;2022-10-31T09:34:02;101008.22;;;15.40;100.00
24230;BME280;12362;50.004;8.006;2022-10-31T09:36:30;100999.31;;;15.57;100.00
24230;BME280;12362;50.004;8.006;2022-10-31T09:38:55;100997.53;;;15.72;100.00
24230;BME280;12362;50.004;8.006;2022-10-31T09:41:44;100994.63;;;15.76;100.00
24230;BME280;12362;50.004;8.006;2022-10-31T09:52:24;100991.19;;;15.76;100.00
24230;BME280;12362;50.004;8.006;2022-10-31T09:54:58;100989.22;;;15.93;100.00
24230;BME280;12362;50.004;8.006;2022-10-31T09:57:27;100982.47;;;16.03;100.00
24230;BME280;12362;50.004;8.006;2022-10-31T09:59:55;100980.31;;;16.24;100.00
24230;BME280;12362;50.004;8.006;2022-10-31T10:05:00;100969.16;;;16.48;100.00
24230;BME280;12362;50.004;8.006;2022-10-31T10:10:10;100967.47;;;17.00;100.00
24230;BME280;12362;50.004;8.006;2022-10-31T10:16:00;100969.56;;;16.68;100.00
24230;BME280;12362;50.004;8.006;2022-10-31T10:32:31;100964.28;;;17.21;100.00
24230;BME280;12362;50.004;8.006;2022-10-31T10:35:20;100948.78;;;17.43;100.00
24230;BME280;12362;50.004;8.006;2022-10-31T10:37:50;100944.47;;;17.54;100.00
24230;BME280;12362;50.004;8.006;2022-10-31T10:40:20;100944.88;;;17.61;100.00
24230;BME280;12362;50.004;8.006;2022-10-31T10:45:47;100944.91;;;17.73;100.00
24230;BME280;12362;50.004;8.006;2022-10-31T10:49:02;100929.81;;;18.00;100.00
24230;BME280;12362;50.004;8.006;2022-10-31T10:59:20;100929.41;;;18.06;100.00
24230;BME280;12362;50.004;8.006;2022-10-31T11:01:48;100921.72;;;18.16;100.00
24230;BME280;12362;50.004;8.006;2022-10-31T11:04:32;100919.28;;;18.13;100.00
24230;BME280;12362;50.004;8.006;2022-10-31T11:09:28;100896.25;;;18.16;100.00
24230;BME280;12362;50.004;8.006;2022-10-31T11:11:54;100893.19;;;17.86;100.00
24230;BME280;12362;50.004;8.006;2022-10-31T11:14:21;100891.63;;;17.71;100.00
24230;BME280;12362;50.004;8.006;2022-10-31T11:16:50;100882.97;;;17.94;100.00
24230;BME280;12362;50.004;8.006;2022-10-31T11:19:25;100882.63;;;18.11;100.00
24230;BME280;12362;50.004;8.006;2022-10-31T11:21:52;100878.22;;;17.99;100.00
24230;BME280;12362;50.004;8.006;2022-10-31T11:29:24;100896.47;;;17.65;100.00
24230;BME280;12362;50.004;8.006;2022-10-31T11:31:55;100893.31;;;17.60;100.00
24230;BME280;12362;50.004;8.006;2022-10-31T11:34:31;100895.84;;;17.61;100.00
24230;BME280;12362;50.004;8.006;2022-10-31T11:37:14;100883.00;;;17.69;100.00
24230;BME280;12362;50.004;8.006;2022-10-31T11:39:52;100879.09;;;17.75;100.00
24230;BME280;12362;50.004;8.006;2022-10-31T11:42:23;100864.22;;;17.99;100.00
24230;BME280;12362;50.004;8.006;2022-10-31T11:44:50;100858.72;;;18.27;100.00
24230;BME280;12362;50.004;8.006;2022-10-31T11:54:15;100840.22;;;18.16;100.00
24230;BME280;12362;50.004;8.006;2022-10-31T12:06:48;100807.28;;;19.02;100.00
24230;BME280;12362;50.004;8.006;2022-10-31T12:15:57;100788.06;;;19.34;100.00
24230;BME280;12362;50.004;8.006;2022-10-31T12:18:51;100785.41;;;19.56;100.00
24230;BME280;12362;50.004;8.006;2022-10-31T12:21:33;100787.34;;;19.65;100.00
24230;BME280;12362;50.004;8.006;2022-10-31T12:27:06;100776.66;;;20.20;100.00
24230;BME280;12362;50.004;8.006;2022-10-31T12:33:03;100768.63;;;20.21;100.00
24230;BME280;12362;50.004;8.006;2022-10-31T12:58:36;100712.16;;;19.50;100.00
24230;BME280;12362;50.004;8.006;2022-10-31T13:03:50;100705.94;;;19.40;100.00
24230;BME280;12362;50.004;8.006;2022-10-31T13:06:24;100701.91;;;19.25;100.00
24230;BME280;12362;50.004;8.006;2022-10-31T13:08:56;100701.63;;;19.39;100.00
24230;BME280;12362;50.004;8.006;2022-10-31T13:11:27;100695.69;;;19.26;100.00
24230;BME280;12362;50.004;8.006;2022-10-31T13:17:02;100699.28;;;19.15;100.00
24230;BME280;12362;50.004;8.006;2022-10-31T13:19:34;100696.25;;;18.86;100.00
24230;BME280;12362;50.004;8.006;2022-10-31T13:22:10;100699.72;;;18.65;100.00
24230;BME280;12362;50.004;8.006;2022-10-31T13:25:02;100694.56;;;18.63;100.00
24230;BME280;12362;50.004;8.006;2022-10-31T13:28:23;100692.00;;;18.40;100.00
24230;BME280;12362;50.004;8.006;2022-10-31T13:30:25;100691.53;;;18.35;100.00
24230;BME280;12362;50.004;8.006;2022-10-31T13:33:05;100681.63;;;18.38;100.00
24230;BME280;12362;50.004;8.006;2022-10-31T13:38:28;100663.00;;;18.63;100.00
24230;BME280;12362;50.004;8.006;2022-10-31T13:41:05;100656.06;;;18.62;100.00
24230;BME280;12362;50.004;8.006;2022-10-31T13:46:39;100672.56;;;18.64;100.00
24230;BME280;12362;50.004;8.006;2022-10-31T13:57:16;100690.91;;;18.31;100.00
24230;BME280;12362;50.004;8.006;2022-10-31T13:59:48;100694.00;;;18.26;100.00
24230;BME280;12362;50.004;8.006;2022-10-31T14:02:21;100684.34;;;18.37;100.00
24230;BME280;12362;50.004;8.006;2022-10-31T14:04:52;100684.13;;;18.51;100.00
24230;BME280;12362;50.004;8.006;2022-10-31T14:07:21;100684.50;;;18.57;100.00
24230;BME280;12362;50.004;8.006;2022-10-31T14:15:29;100660.97;;;19.95;100.00
24230;BME280;12362;50.004;8.006;2022-10-31T14:17:56;100654.94;;;20.04;100.00
24230;BME280;12362;50.004;8.006;2022-10-31T14:20:42;100656.22;;;19.89;100.00
24230;BME280;12362;50.004;8.006;2022-10-31T14:25:38;100646.66;;;20.29;100.00
24230;BME280;12362;50.004;8.006;2022-10-31T14:28:33;100641.59;;;20.37;100.00
24230;BME280;12362;50.004;8.006;2022-10-31T14:30:59;100638.09;;;20.36;100.00
24230;BME280;12362;50.004;8.006;2022-10-31T14:33:28;100634.50;;;20.17;100.00
24230;BME280;12362;50.004;8.006;2022-10-31T14:36:00;100637.16;;;19.86;100.00
24230;BME280;12362;50.004;8.006;2022-10-31T14:41:19;100639.50;;;19.37;100.00
24230;BME280;12362;50.004;8.006;2022-10-31T14:51:43;100619.97;;;18.08;100.00
24230;BME280;12362;50.004;8.006;2022-10-31T14:54:27;100613.84;;;17.97;100.00
24230;BME280;12362;50.004;8.006;2022-10-31T14:56:57;100624.28;;;17.75;100.00
24230;BME280;12362;50.004;8.006;2022-10-31T14:59:28;100620.03;;;17.50;100.00
24230;BME280;12362;50.004;8.006;2022-10-31T15:02:11;100624.19;;;17.53;100.00
24230;BME280;12362;50.004;8.006;2022-10-31T15:04:40;100626.09;;;17.51;100.00
24230;BME280;12362;50.004;8.006;2022-10-31T15:07:24;100632.69;;;17.56;100.00
24230;BME280;12362;50.004;8.006;2022-10-31T15:10:06;100619.38;;;17.47;100.00
24230;BME280;12362;50.004;8.006;2022-10-31T15:12:50;100622.59;;;17.39;100.00
24230;BME280;12362;50.004;8.006;2022-10-31T15:15:26;100624.75;;;17.22;100.00
24230;BME280;12362;50.004;8.006;2022-10-31T15:17:57;100607.56;;;17.06;100.00
24230;BME280;12362;50.004;8.006;2022-10-31T15:20:28;100590.78;;;16.96;100.00
24230;BME280;12362;50.004;8.006;2022-10-31T15:22:56;100583.53;;;16.76;100.00
24230;BME280;12362;50.004;8.006;2022-10-31T15:25:33;100575.78;;;16.62;100.00
24230;BME280;12362;50.004;8.006;2022-10-31T15:28:00;100567.72;;;16.65;100.00
24230;BME280;12362;50.004;8.006;2022-10-31T15:30:27;100557.56;;;16.60;100.00
24230;BME280;12362;50.004;8.006;2022-10-31T15:32:53;100540.03;;;16.61;100.00
24230;BME280;12362;50.004;8.006;2022-10-31T15:35:30;100563.16;;;16.79;100.00
24230;BME280;12362;50.004;8.006;2022-10-31T15:37:57;100561.44;;;16.91;100.00
24230;BME280;12362;50.004;8.006;2022-10-31T15:40:25;100544.47;;;16.84;100.00
24230;BME280;12362;50.004;8.006;2022-10-31T15:42:51;100547.63;;;16.76;100.00
24230;BME280;12362;50.004;8.006;2022-10-31T15:45:25;100545.47;;;16.70;100.00